Time;durP1;ratioP1;P1;durP2;ratioP2;P2;SDS_P1;SDS_P2;PMS_P1;PMS_P2;Temp;Humidity;BMP_temperature;BMP_pressure;BME280_temperature;BME280_humidity;BME280_pressure;Samples;Min_cycle;Max_cycle;Signal;HPM_P1;HPM_P2
2022/11/15 00:01:48;;;;;;;38.03;23.20;;;;;;;6.46;96.99;101397.16;5007897;28;20034;-75
2022/11/15 00:04:13;;;;;;;36.83;17.20;;;;;;;7.35;95.77;101503.41;5006336;28;20053;-75
2022/11/15 00:06:39;;;;;;;39.55;26.50;;;;;;;7.43;96.27;101512.38;4997754;28;20575;-76
2022/11/15 00:09:05;;;;;;;33.90;21.58;;;;;;;6.89;95.88;101437.66;5007414;28;20741;-74
2022/11/15 00:11:30;;;;;;;37.70;23.17;;;;;;;6.92;96.99;101414.25;5007770;28;20030;-74
2022/11/15 00:13:57;;;;;;;44.97;23.20;;;;;;;6.53;97.69;101396.53;5023185;28;20030;-73
2022/11/15 00:16:23;;;;;;;35.25;21.55;;;;;;;7.38;98.06;101516.59;5020573;28;20046;-74
2022/11/15 00:18:49;;;;;;;39.40;22.35;;;;;;;7.23;98.58;101522.19;5011337;28;20124;-74
2022/11/15 00:21:15;;;;;;;36.15;21.67;;;;;;;7.23;99.00;101539.59;5005607;28;20524;-75
2022/11/15 00:23:41;;;;;;;38.20;23.70;;;;;;;6.50;99.07;101391.19;5007563;28;20068;-74
2022/11/15 00:26:10;;;;;;;44.28;24.73;;;;;;;7.19;99.27;101507.31;5008049;28;20470;-75
2022/11/15 00:28:35;;;;;;;45.05;26.75;;;;;;;6.32;98.60;101354.09;4989497;28;20152;-75
2022/11/15 00:31:07;;;;;;;51.63;28.40;;;;;;;6.82;98.54;101425.25;5022060;28;20060;-73
2022/11/15 00:33:33;;;;;;;49.35;23.95;;;;;;;6.67;97.19;101380.41;5017069;28;20081;-74
2022/11/15 00:36:07;;;;;;;44.08;24.73;;;;;;;6.66;96.35;101378.66;5018340;28;20045;-73
2022/11/15 00:38:37;;;;;;;42.47;25.42;;;;;;;7.15;97.19;101500.22;4990026;28;20033;-73
2022/11/15 00:41:05;;;;;;;39.08;25.48;;;;;;;7.33;97.04;101513.84;5007624;28;20049;-75
2022/11/15 00:43:31;;;;;;;48.35;26.45;;;;;;;7.17;96.73;101480.25;5007896;28;20872;-75
2022/11/15 00:45:58;;;;;;;41.95;25.52;;;;;;;7.22;96.77;101464.75;5004234;28;21719;-75
2022/11/15 00:48:24;;;;;;;42.20;23.30;;;;;;;7.26;97.03;101477.94;4987754;28;20054;-75
2022/11/15 00:50:50;;;;;;;36.78;22.92;;;;;;;6.31;97.68;101339.31;4988166;28;20422;-74
2022/11/15 00:53:17;;;;;;;45.78;27.10;;;;;;;6.20;97.76;101340.66;4988659;28;20117;-74
2022/11/15 00:55:43;;;;;;;38.28;26.20;;;;;;;6.46;96.64;101351.94;4986361;28;20058;-73
2022/11/15 00:58:09;;;;;;;27.77;16.40;;;;;;;7.00;96.58;101440.59;4987686;28;20387;-75
2022/11/15 01:00:35;;;;;;;32.85;17.05;;;;;;;7.15;96.97;101481.94;4996315;28;20060;-77
2022/11/15 01:03:01;;;;;;;46.42;24.83;;;;;;;6.54;97.10;101353.94;5007398;28;20041;-74
2022/11/15 01:05:27;;;;;;;37.33;23.50;;;;;;;7.30;96.60;101464.13;5007928;28;20073;-75
2022/11/15 01:07:54;;;;;;;38.58;24.30;;;;;;;7.04;95.98;101395.47;5007857;28;20037;-74
2022/11/15 01:10:20;;;;;;;46.75;27.75;;;;;;;6.70;97.17;101381.41;5007390;28;20058;-74
2022/11/15 01:12:46;;;;;;;52.75;29.08;;;;;;;7.10;97.38;101460.91;5012404;28;20103;-74
2022/11/15 01:15:11;;;;;;;53.33;27.67;;;;;;;6.58;97.12;101341.00;5006898;28;20572;-73
2022/11/15 01:17:36;;;;;;;43.60;25.67;;;;;;;6.84;94.74;101360.97;5007155;28;20049;-74
2022/11/15 01:20:03;;;;;;;36.03;23.92;;;;;;;7.54;94.54;101465.72;5007341;28;20033;-75
2022/11/15 01:22:28;;;;;;;43.50;23.98;;;;;;;7.23;95.66;101388.19;5005677;28;20072;-74
2022/11/15 01:24:54;;;;;;;42.78;25.83;;;;;;;7.08;94.79;101371.25;5007501;28;20488;-73
2022/11/15 01:27:19;;;;;;;36.78;20.05;;;;;;;7.37;95.15;101466.09;4989156;28;20085;-74
2022/11/15 01:29:45;;;;;;;46.40;28.73;;;;;;;7.52;95.24;101470.00;5010289;28;20064;-73
2022/11/15 01:32:10;;;;;;;64.03;29.15;;;;;;;6.97;94.09;101344.81;5027520;28;20041;-74
2022/11/15 01:34:36;;;;;;;41.53;25.95;;;;;;;7.88;93.68;101487.56;5026783;28;20127;-73
2022/11/15 01:37:02;;;;;;;40.28;25.10;;;;;;;7.11;93.31;101349.56;5017153;28;20061;-72
2022/11/15 01:39:27;;;;;;;43.83;26.15;;;;;;;7.91;93.51;101471.97;5007022;28;20092;-74
2022/11/15 01:41:53;;;;;;;39.13;23.88;;;;;;;7.10;93.36;101353.91;4991717;28;20038;-74
2022/11/15 01:44:30;;;;;;;38.67;25.58;;;;;;;7.89;93.95;101476.25;4989610;28;20033;-75
2022/11/15 01:46:58;;;;;;;44.08;26.33;;;;;;;7.85;94.17;101467.47;5010042;28;20041;-74
2022/11/15 01:49:24;;;;;;;38.35;23.90;;;;;;;7.48;94.34;101408.94;4992539;28;20104;-75
2022/11/15 01:51:51;;;;;;;44.78;27.15;;;;;;;7.85;94.58;101472.69;5009876;28;20064;-75
2022/11/15 01:54:20;;;;;;;41.50;25.95;;;;;;;7.13;96.28;101452.28;5009783;28;20536;-74
2022/11/15 01:56:55;;;;;;;43.53;26.98;;;;;;;7.36;96.81;101453.88;5008577;28;20061;-74
2022/11/15 01:59:21;;;;;;;41.90;25.08;;;;;;;6.97;95.40;101357.00;5010243;28;20029;-74
2022/11/15 02:01:47;;;;;;;40.80;25.27;;;;;;;7.66;95.49;101452.13;5010343;28;20038;-76
2022/11/15 02:04:20;;;;;;;44.47;23.83;;;;;;;6.86;95.35;101319.25;5010179;28;20053;-73
2022/11/15 02:06:48;;;;;;;48.15;27.35;;;;;;;6.31;95.60;101264.59;5009772;28;20042;-75
2022/11/15 02:09:14;;;;;;;39.88;25.35;;;;;;;7.16;96.96;101435.00;4991911;28;20067;-73
2022/11/15 02:11:39;;;;;;;41.30;24.02;;;;;;;6.74;96.39;101330.19;5011985;28;20414;-74
2022/11/15 02:14:07;;;;;;;40.03;24.35;;;;;;;6.77;95.27;101317.28;5021480;28;20033;-76
2022/11/15 02:16:47;;;;;;;47.13;27.60;;;;;;;7.29;96.64;101438.88;5012569;28;20046;-74
2022/11/15 02:19:31;;;;;;;44.72;26.02;;;;;;;7.50;96.06;101443.84;5009626;28;20137;-74
2022/11/15 02:21:59;;;;;;;38.08;26.35;;;;;;;7.68;94.31;101435.66;5007696;28;20054;-76
2022/11/15 02:24:52;;;;;;;42.00;24.48;;;;;;;7.38;96.16;101438.25;5009376;28;20050;-75
2022/11/15 02:27:29;;;;;;;42.15;24.35;;;;;;;7.48;95.85;101436.81;5008064;28;20160;-75
2022/11/15 02:30:14;;;;;;;40.20;27.52;;;;;;;7.00;96.80;101413.59;5019257;28;20045;-74
2022/11/15 02:32:48;;;;;;;43.00;28.60;;;;;;;6.55;98.42;101358.34;5024211;28;20069;-75
2022/11/15 02:35:31;;;;;;;45.92;27.95;;;;;;;7.04;99.08;101441.56;4992280;28;20041;-75
2022/11/15 02:38:02;;;;;;;40.95;25.90;;;;;;;6.27;98.71;101299.22;5009562;28;20856;-75
2022/11/15 02:40:53;;;;;;;45.70;25.27;;;;;;;6.34;97.80;101295.09;5002746;28;20104;-74
2022/11/15 02:46:21;;;;;;;45.47;21.33;;;;;;;7.13;97.45;101390.53;5002351;28;20753;-75
2022/11/15 02:48:48;;;;;;;43.88;26.38;;;;;;;6.58;97.54;101325.34;5009073;28;20049;-74
2022/11/15 02:51:16;;;;;;;42.45;26.65;;;;;;;7.07;97.59;101398.19;4991307;28;20065;-74
2022/11/15 02:53:43;;;;;;;47.95;29.50;;;;;;;6.42;97.67;101282.31;5007003;28;20096;-75
2022/11/15 02:56:09;;;;;;;40.40;26.02;;;;;;;7.19;97.45;101415.94;5009760;28;20036;-75
2022/11/15 02:58:53;;;;;;;46.60;27.58;;;;;;;7.30;96.03;101408.41;5008410;28;20179;-74
2022/11/15 03:01:34;;;;;;;47.00;26.55;;;;;;;7.39;96.18;101413.91;5008817;28;20042;-75
2022/11/15 03:04:27;;;;;;;47.17;26.88;;;;;;;7.48;96.37;101415.91;5008811;28;20052;-74
2022/11/15 03:06:59;;;;;;;51.47;28.80;;;;;;;6.98;96.96;101397.91;5007051;28;20104;-75
2022/11/15 03:09:45;;;;;;;41.80;24.95;;;;;;;7.27;97.05;101414.44;4995282;28;20061;-75
2022/11/15 03:12:28;;;;;;;38.58;24.08;;;;;;;7.42;94.71;101393.09;5009348;28;20129;-74
2022/11/15 03:15:23;;;;;;;50.78;24.77;;;;;;;7.24;95.53;101401.31;5007456;28;20045;-76
2022/11/15 03:18:25;;;;;;;41.97;19.70;;;;;;;7.33;96.41;101406.78;5007416;28;20899;-74
2022/11/15 03:20:54;;;;;;;47.38;27.23;;;;;;;7.31;95.04;101369.31;5007010;28;20056;-74
2022/11/15 03:23:20;;;;;;;50.25;29.77;;;;;;;6.64;95.66;101276.00;5007356;28;20033;-75
2022/11/15 03:25:50;;;;;;;46.50;31.02;;;;;;;7.19;96.85;101389.84;5007177;28;20093;-74
2022/11/15 03:28:25;;;;;;;40.00;26.40;;;;;;;7.29;96.46;101386.66;5008084;28;20030;-74
2022/11/15 03:30:53;;;;;;;57.28;28.75;;;;;;;6.94;95.42;101297.78;5024086;28;20041;-75
2022/11/15 03:33:21;;;;;;;39.92;25.92;;;;;;;7.45;96.05;101402.78;5027837;28;20048;-74
2022/11/15 03:35:48;;;;;;;39.20;26.63;;;;;;;6.47;96.39;101241.63;5028252;28;20060;-73
2022/11/15 03:38:22;;;;;;;44.03;25.95;;;;;;;6.84;98.00;101367.91;5005617;28;20034;-75
2022/11/15 03:40:58;;;;;;;39.42;27.42;;;;;;;6.93;98.53;101389.94;4998646;28;20046;-73
2022/11/15 03:43:32;;;;;;;47.42;27.02;;;;;;;6.89;98.43;101395.91;4976722;28;20143;-73
2022/11/15 03:46:13;;;;;;;52.30;27.27;;;;;;;6.24;98.46;101267.84;4999133;28;20049;-74
2022/11/15 03:48:51;;;;;;;48.20;29.30;;;;;;;7.03;97.21;101362.41;5007653;28;20073;-75
2022/11/15 03:51:17;;;;;;;45.65;25.80;;;;;;;6.84;96.83;101340.09;5006683;28;20050;-74
2022/11/15 03:53:45;;;;;;;41.78;25.33;;;;;;;6.82;96.72;101326.13;5007755;28;20054;-73
2022/11/15 03:56:11;;;;;;;39.67;18.88;;;;;;;6.30;96.45;101244.59;5008843;28;20045;-74
2022/11/15 03:58:36;;;;;;;51.53;27.25;;;;;;;6.54;97.11;101291.38;5005902;28;20048;-74
2022/11/15 04:01:02;;;;;;;50.03;27.30;;;;;;;7.09;97.31;101356.47;5007776;28;20460;-74
2022/11/15 04:03:27;;;;;;;42.35;25.83;;;;;;;6.92;96.74;101309.88;5007091;28;20449;-74
2022/11/15 04:05:53;;;;;;;41.33;25.58;;;;;;;6.86;95.80;101281.03;5008912;28;20203;-75
2022/11/15 04:08:18;;;;;;;40.83;25.83;;;;;;;7.44;96.00;101357.47;4988245;28;20050;-75
2022/11/15 04:10:43;;;;;;;39.20;19.35;;;;;;;6.67;95.99;101253.53;4988384;28;20073;-74
2022/11/15 04:13:09;;;;;;;46.53;27.25;;;;;;;7.34;95.99;101363.28;5004899;28;20409;-74
2022/11/15 04:15:35;;;;;;;48.28;27.63;;;;;;;6.92;96.34;101275.09;5019197;28;20121;-74
2022/11/15 04:18:00;;;;;;;47.58;26.33;;;;;;;7.44;96.58;101344.41;4989336;28;20053;-74
2022/11/15 04:26:11;;;;;;;40.80;26.63;;;;;;;6.28;97.57;101238.44;5007576;28;20165;-75
2022/11/15 04:29:33;;;;;;;50.35;28.67;;;;;;;6.95;97.99;101343.91;5006698;28;20088;-75
2022/11/15 04:31:24;;;;;;;46.15;27.45;;;;;;;6.55;97.39;101259.28;4987731;28;20104;-74
2022/11/15 04:33:50;;;;;;;43.17;27.88;;;;;;;7.14;97.80;101370.53;4987880;28;20769;-75
2022/11/15 04:38:59;;;;;;;28.23;16.73;;;;;;;6.97;97.43;101307.41;4987652;28;20418;-74
2022/11/15 04:41:25;;;;;;;46.83;25.23;;;;;;;6.87;96.17;101243.66;4987993;28;20035;-75
2022/11/15 04:43:50;;;;;;;46.63;26.42;;;;;;;7.52;95.10;101349.88;4988741;28;20030;-74
2022/11/15 04:46:16;;;;;;;54.42;34.35;;;;;;;6.91;95.26;101266.38;5000336;28;20041;-74
2022/11/15 04:48:41;;;;;;;47.70;32.92;;;;;;;6.61;96.09;101211.63;5005777;28;20778;-75
2022/11/15 04:51:07;;;;;;;54.35;30.95;;;;;;;6.38;96.60;101218.75;5007103;28;20413;-73
2022/11/15 04:53:34;;;;;;;49.42;27.75;;;;;;;6.36;97.00;101209.13;5006760;28;20485;-74
2022/11/15 04:55:59;;;;;;;46.33;26.90;;;;;;;7.16;97.41;101342.75;5007806;28;20050;-74
2022/11/15 04:58:25;;;;;;;47.80;26.02;;;;;;;7.16;97.36;101345.38;4989017;28;20092;-74
2022/11/15 05:00:50;;;;;;;46.78;27.75;;;;;;;6.64;96.79;101242.09;5006757;28;20054;-75
2022/11/15 05:06:00;;;;;;;48.70;30.83;;;;;;;7.24;95.86;101312.56;5026335;28;20047;-74
2022/11/15 05:08:25;;;;;;;50.42;29.38;;;;;;;7.11;96.58;101333.91;5026540;28;20119;-74
2022/11/15 05:10:51;;;;;;;50.38;29.85;;;;;;;6.63;96.63;101240.34;5026935;28;20140;-73
2022/11/15 05:13:17;;;;;;;53.60;31.05;;;;;;;6.70;98.12;101307.50;5016893;28;20674;-74
2022/11/15 05:15:42;;;;;;;56.15;29.55;;;;;;;6.68;98.45;101310.06;5007263;28;20592;-75
2022/11/15 05:18:08;;;;;;;46.35;28.48;;;;;;;6.53;98.84;101260.03;5009577;28;20042;-74
2022/11/15 05:20:33;;;;;;;51.83;30.75;;;;;;;6.87;98.40;101323.66;5010119;28;20048;-75
2022/11/15 05:22:59;;;;;;;50.30;28.48;;;;;;;6.96;97.71;101310.88;5008788;28;20041;-74
2022/11/15 05:25:25;;;;;;;51.70;29.73;;;;;;;7.35;96.15;101337.22;5010321;28;20371;-75
2022/11/15 05:27:50;;;;;;;48.35;29.13;;;;;;;6.83;94.91;101212.22;5010206;28;20605;-73
2022/11/15 05:30:16;;;;;;;59.35;31.00;;;;;;;7.66;94.61;101345.03;5016937;28;20050;-73
2022/11/15 05:32:42;;;;;;;33.33;18.23;;;;;;;6.66;96.01;101211.75;4990610;28;20073;-73
2022/11/15 05:35:13;;;;;;;50.50;29.00;;;;;;;6.81;96.81;101264.34;4990571;28;20504;-75
2022/11/15 05:37:39;;;;;;;57.22;30.02;;;;;;;6.92;97.03;101251.63;4990245;28;20108;-75
2022/11/15 05:40:05;;;;;;;60.85;32.83;;;;;;;7.14;95.92;101285.31;4989993;28;20760;-74
2022/11/15 05:42:30;;;;;;;52.00;33.72;;;;;;;7.19;96.69;101314.16;4989990;28;20050;-74
2022/11/15 05:44:57;;;;;;;52.33;30.25;;;;;;;7.45;95.52;101317.47;4973037;28;20180;-75
2022/11/15 05:47:27;;;;;;;56.00;35.38;;;;;;;7.53;95.90;101342.06;5008937;28;20048;-74
2022/11/15 05:49:53;;;;;;;58.67;35.20;;;;;;;6.64;96.86;101229.06;5009523;28;20196;-74
2022/11/15 05:52:24;;;;;;;57.05;31.23;;;;;;;6.65;96.55;101183.88;5009646;28;20053;-75
2022/11/15 05:54:50;;;;;;;47.30;28.90;;;;;;;7.51;96.21;101338.53;5008971;28;20054;-74
2022/11/15 05:57:16;;;;;;;53.53;32.83;;;;;;;7.70;96.08;101342.53;5009157;28;20046;-75
2022/11/15 05:59:43;;;;;;;51.47;32.97;;;;;;;6.94;95.22;101219.50;4999492;28;20423;-73
2022/11/15 06:02:09;;;;;;;60.75;32.85;;;;;;;6.83;94.95;101207.88;4982518;28;20033;-74
2022/11/15 06:04:35;;;;;;;60.40;31.13;;;;;;;6.39;97.23;101183.13;5028435;28;20077;-74
2022/11/15 06:07:01;;;;;;;50.25;29.08;;;;;;;7.62;96.93;101351.88;5028598;28;20075;-74
2022/11/15 06:09:26;;;;;;;61.50;32.15;;;;;;;7.59;95.78;101323.97;5009949;28;20057;-75
2022/11/15 06:11:52;;;;;;;60.35;33.75;;;;;;;7.07;95.85;101222.44;5028392;28;20068;-74
2022/11/15 06:14:17;;;;;;;57.25;33.03;;;;;;;7.82;94.81;101348.09;5009328;28;20030;-74
2022/11/15 06:16:43;;;;;;;52.88;29.60;;;;;;;7.82;95.52;101352.44;5007827;28;20049;-74
2022/11/15 06:19:09;;;;;;;54.10;30.55;;;;;;;7.78;94.79;101342.75;5008719;28;20054;-73
2022/11/15 06:21:35;;;;;;;44.47;27.98;;;;;;;7.34;94.05;101256.25;4989003;28;20524;-74
2022/11/15 06:24:01;;;;;;;52.70;29.63;;;;;;;7.85;94.98;101349.88;5008864;28;20149;-74
2022/11/15 06:26:26;;;;;;;43.10;28.10;;;;;;;7.98;94.35;101345.84;5008161;28;20060;-75
2022/11/15 06:28:52;;;;;;;60.33;30.98;;;;;;;8.01;94.43;101348.56;4999789;28;20176;-75
2022/11/15 06:31:17;;;;;;;51.53;31.48;;;;;;;7.92;94.54;101338.75;5028331;28;20099;-73
2022/11/15 06:33:43;;;;;;;51.80;31.65;;;;;;;8.00;93.79;101346.78;5028880;28;20061;-73
2022/11/15 06:36:13;;;;;;;54.60;28.25;;;;;;;7.26;94.18;101224.72;5028854;28;20095;-75
2022/11/15 06:38:39;;;;;;;49.03;28.88;;;;;;;7.96;94.25;101344.91;5028511;28;20127;-75
2022/11/15 06:41:07;;;;;;;62.20;31.25;;;;;;;7.77;94.44;101339.25;5010980;28;20037;-76
2022/11/15 06:43:34;;;;;;;53.58;32.10;;;;;;;7.80;94.37;101351.50;5021537;28;20176;-75
2022/11/15 06:46:01;;;;;;;51.97;30.23;;;;;;;7.24;94.34;101229.03;5018414;28;20050;-75
2022/11/15 06:48:28;;;;;;;55.92;29.38;;;;;;;7.29;94.03;101222.19;5008433;28;20056;-75
2022/11/15 06:50:55;;;;;;;48.60;29.33;;;;;;;7.47;94.34;101252.22;5008478;28;20132;-74
2022/11/15 06:53:20;;;;;;;43.75;29.20;;;;;;;7.63;93.59;101279.63;5008395;28;20149;-75
2022/11/15 06:55:46;;;;;;;50.70;29.00;;;;;;;7.27;92.95;101238.66;5008131;28;20085;-75
2022/11/15 06:58:13;;;;;;;51.38;31.10;;;;;;;7.48;92.88;101254.88;5008358;28;20112;-75
2022/11/15 07:00:38;;;;;;;59.78;31.92;;;;;;;7.88;92.42;101318.59;5008307;28;20049;-75
2022/11/15 07:03:04;;;;;;;50.92;31.13;;;;;;;7.45;92.37;101223.47;5019126;28;20072;-75
2022/11/15 07:05:29;;;;;;;52.17;29.27;;;;;;;7.45;92.49;101241.75;5027646;28;20036;-75
2022/11/15 07:07:56;;;;;;;51.67;28.25;;;;;;;7.38;92.70;101213.72;5028862;28;20029;-75
2022/11/15 07:10:24;;;;;;;53.60;30.60;;;;;;;8.07;93.14;101334.75;5027570;28;20046;-76
2022/11/15 07:12:54;;;;;;;53.78;30.15;;;;;;;7.86;92.30;101311.56;5021755;28;20038;-73
2022/11/15 07:15:21;;;;;;;48.40;30.85;;;;;;;7.90;93.32;101308.19;5007188;28;20144;-73
2022/11/15 07:17:47;;;;;;;50.00;29.25;;;;;;;8.07;92.35;101343.47;5008156;28;20046;-75
2022/11/15 07:20:13;;;;;;;46.90;28.27;;;;;;;8.04;91.82;101353.84;5008621;28;20034;-74
2022/11/15 07:22:40;;;;;;;50.92;31.92;;;;;;;7.96;92.51;101314.47;5003986;28;20776;-75
2022/11/15 07:25:06;;;;;;;50.47;30.30;;;;;;;8.14;91.89;101337.53;4990090;28;20065;-74
2022/11/15 07:27:32;;;;;;;64.45;30.27;;;;;;;8.04;91.58;101310.31;5007713;28;20050;-74
2022/11/15 07:29:57;;;;;;;48.22;28.08;;;;;;;7.97;91.19;101316.22;5016766;28;20477;-73
2022/11/15 07:32:23;;;;;;;57.40;30.13;;;;;;;7.90;91.11;101298.63;5007367;28;20041;-73
2022/11/15 07:34:48;;;;;;;50.38;28.95;;;;;;;7.71;91.50;101273.75;4989885;28;20100;-76
2022/11/15 07:37:14;;;;;;;53.80;29.73;;;;;;;7.83;91.80;101292.34;5007463;28;20085;-75
2022/11/15 07:39:39;;;;;;;54.88;29.38;;;;;;;8.18;91.39;101333.28;4989491;28;20792;-76
2022/11/15 07:44:49;;;;;;;51.00;29.20;;;;;;;8.17;91.06;101329.81;5004889;28;20100;-76
2022/11/15 07:47:15;;;;;;;53.58;30.90;;;;;;;8.08;90.38;101300.81;5007723;28;20037;-73
2022/11/15 07:49:40;;;;;;;54.60;30.48;;;;;;;8.23;91.17;101322.09;5007244;28;20060;-75
2022/11/15 07:52:05;;;;;;;54.92;29.95;;;;;;;8.15;90.85;101328.00;5007590;28;20834;-73
2022/11/15 07:54:31;;;;;;;50.80;30.10;;;;;;;8.03;90.48;101298.09;5007315;28;20092;-73
2022/11/15 07:56:56;;;;;;;52.47;31.73;;;;;;;7.49;91.77;101221.81;5006356;28;20478;-73
2022/11/15 07:59:22;;;;;;;56.03;31.05;;;;;;;7.98;91.45;101312.78;5006474;28;20036;-74
2022/11/15 08:01:47;;;;;;;52.65;32.03;;;;;;;7.98;91.47;101301.41;5009514;28;20409;-75
2022/11/15 08:04:13;;;;;;;64.70;31.95;;;;;;;8.20;90.98;101323.75;5027089;28;20080;-73
2022/11/15 08:06:38;;;;;;;61.83;31.90;;;;;;;8.23;91.72;101313.38;5027372;28;20053;-73
2022/11/15 08:09:04;;;;;;;59.72;32.03;;;;;;;7.21;91.12;101126.25;4999569;28;20520;-76
2022/11/15 08:11:29;;;;;;;51.92;29.80;;;;;;;8.31;92.01;101324.00;5006283;28;20472;-75
2022/11/15 08:13:55;;;;;;;51.35;31.98;;;;;;;8.35;91.54;101325.84;5010800;28;20037;-75
2022/11/15 08:16:21;;;;;;;58.83;29.77;;;;;;;7.65;90.34;101199.59;4995938;28;20426;-73
2022/11/15 08:18:46;;;;;;;58.75;31.65;;;;;;;8.30;89.77;101304.81;5000584;28;20053;-76
2022/11/15 08:21:17;;;;;;;51.08;31.75;;;;;;;8.31;89.67;101306.59;5005810;28;20133;-73
2022/11/15 08:23:43;;;;;;;59.28;34.00;;;;;;;8.11;91.14;101273.88;5007554;28;20042;-75
2022/11/15 08:26:09;;;;;;;49.38;31.45;;;;;;;7.59;90.23;101205.56;5007679;28;20041;-75
2022/11/15 08:28:35;;;;;;;57.25;32.13;;;;;;;8.08;89.91;101284.22;5006501;28;20620;-76
2022/11/15 08:31:02;;;;;;;47.58;29.63;;;;;;;8.18;90.00;101281.00;5017596;28;20433;-78
2022/11/15 08:33:28;;;;;;;55.03;34.05;;;;;;;8.26;90.05;101313.44;5005963;28;20049;-81
2022/11/15 08:35:56;;;;;;;51.17;30.17;;;;;;;7.89;90.85;101241.09;5006203;28;20121;-81
2022/11/15 08:38:21;;;;;;;53.65;33.42;;;;;;;7.59;90.07;101195.97;4988731;28;20458;-80
2022/11/15 08:40:47;;;;;;;55.47;31.63;;;;;;;7.37;90.33;101144.97;5008074;28;20033;-80
2022/11/15 08:43:12;;;;;;;60.00;31.77;;;;;;;8.18;90.06;101307.16;4988557;28;20516;-79
2022/11/15 08:45:38;;;;;;;53.83;30.90;;;;;;;8.22;89.71;101280.25;5003724;28;20068;-79
2022/11/15 08:48:04;;;;;;;56.15;31.60;;;;;;;8.18;90.46;101296.69;5006015;28;20042;-78
2022/11/15 08:50:31;;;;;;;57.17;32.55;;;;;;;7.85;91.58;101258.44;4989748;28;20053;-77
2022/11/15 08:52:57;;;;;;;69.25;35.55;;;;;;;7.21;91.96;101174.13;5010143;28;20041;-77
2022/11/15 08:55:22;;;;;;;65.60;32.55;;;;;;;8.00;90.22;101263.16;4992609;28;20050;-79
2022/11/15 08:57:48;;;;;;;70.18;36.83;;;;;;;7.69;89.55;101191.88;5010452;28;20054;-78
2022/11/15 09:00:14;;;;;;;58.17;33.05;;;;;;;7.37;89.71;101146.66;5010814;28;20064;-78
2022/11/15 09:02:40;;;;;;;54.70;33.85;;;;;;;8.27;91.16;101283.84;5019981;28;20591;-78
2022/11/15 09:05:06;;;;;;;58.50;30.92;;;;;;;8.07;90.67;101249.38;5016446;28;20049;-77
2022/11/15 09:07:32;;;;;;;56.22;33.35;;;;;;;7.53;89.81;101150.53;5010937;28;20060;-78
2022/11/15 09:09:58;;;;;;;57.88;32.13;;;;;;;8.31;90.84;101280.47;5009697;28;20038;-77
2022/11/15 09:12:24;;;;;;;49.38;31.20;;;;;;;7.45;89.97;101181.69;5011347;28;20050;-78
2022/11/15 09:14:50;;;;;;;54.78;32.00;;;;;;;8.35;89.42;101271.81;5009831;28;20073;-75
2022/11/15 09:17:15;;;;;;;56.50;32.53;;;;;;;8.25;89.81;101225.41;4992263;28;20037;-76
2022/11/15 09:19:41;;;;;;;59.92;31.90;;;;;;;8.17;89.38;101213.88;5009448;28;20384;-77
2022/11/15 09:22:07;;;;;;;55.10;30.92;;;;;;;8.08;89.68;101235.47;4990078;28;20056;-77
2022/11/15 09:24:33;;;;;;;51.97;33.35;;;;;;;7.46;89.90;101120.78;5009821;28;20058;-77
2022/11/15 09:26:59;;;;;;;59.55;32.35;;;;;;;8.04;91.55;101215.34;5008989;28;20061;-77
2022/11/15 09:29:24;;;;;;;55.33;33.83;;;;;;;7.35;91.32;101123.16;5011608;28;20038;-77
2022/11/15 09:31:52;;;;;;;61.17;35.78;;;;;;;7.65;91.49;101174.34;5010532;28;20470;-78
2022/11/15 09:34:18;;;;;;;51.60;32.83;;;;;;;7.98;91.16;101229.16;5009055;28;20045;-78
2022/11/15 09:36:43;;;;;;;60.85;33.22;;;;;;;8.07;91.45;101246.75;5010099;28;20045;-77
2022/11/15 09:39:09;;;;;;;58.00;32.50;;;;;;;7.37;92.38;101136.22;5010041;28;20652;-77
2022/11/15 09:41:55;;;;;;;60.95;31.80;;;;;;;7.20;92.31;101094.06;5027706;28;20163;-74
2022/11/15 09:44:42;;;;;;;55.63;32.83;;;;;;;8.14;92.55;101242.56;5027677;28;20040;-78
2022/11/15 09:47:26;;;;;;;54.50;33.95;;;;;;;7.80;92.17;101155.56;5010019;28;20034;-80
2022/11/15 09:49:56;;;;;;;50.95;32.20;;;;;;;8.29;91.50;101235.09;5009884;28;20054;-78
2022/11/15 09:52:22;;;;;;;56.10;35.67;;;;;;;7.37;90.42;101100.59;4991896;28;20050;-76
2022/11/15 09:54:50;;;;;;;51.70;32.03;;;;;;;7.25;91.49;101089.81;5009237;28;20057;-76
2022/11/15 09:57:26;;;;;;;45.42;30.77;;;;;;;7.14;91.45;101093.88;5009415;28;20038;-76
2022/11/15 09:59:59;;;;;;;60.30;33.22;;;;;;;8.22;90.74;101201.81;5009537;28;20042;-76
2022/11/15 10:02:31;;;;;;;65.05;32.30;;;;;;;8.24;91.48;101213.16;5014062;28;20044;-76
2022/11/15 10:04:58;;;;;;;55.67;31.25;;;;;;;7.71;90.42;101135.31;5010305;28;20117;-77
2022/11/15 10:07:36;;;;;;;49.45;30.90;;;;;;;7.25;90.52;101063.72;4991083;28;20049;-76
2022/11/15 10:10:24;;;;;;;59.65;33.05;;;;;;;7.28;89.91;101061.19;5009135;28;20041;-76
2022/11/15 10:12:51;;;;;;;49.55;29.38;;;;;;;8.02;90.53;101176.09;5014859;28;20049;-78
2022/11/15 10:15:22;;;;;;;50.70;30.35;;;;;;;7.72;91.23;101194.53;5023092;28;20073;-77
2022/11/15 10:18:28;;;;;;;58.00;31.17;;;;;;;7.93;91.37;101204.63;5008861;28;20041;-75
2022/11/15 10:21:19;;;;;;;50.88;30.17;;;;;;;7.50;91.63;101140.91;5005894;28;20064;-77
2022/11/15 10:23:44;;;;;;;55.03;32.50;;;;;;;7.77;92.40;101179.88;5009170;28;20113;-77
2022/11/15 10:26:15;;;;;;;53.22;32.53;;;;;;;7.82;91.48;101180.00;5009117;28;20026;-77
2022/11/15 10:28:41;;;;;;;51.85;29.58;;;;;;;8.10;91.56;101177.97;5007728;28;20460;-77
2022/11/15 10:31:25;;;;;;;50.13;31.15;;;;;;;7.44;90.83;101046.75;5027423;28;20097;-78
2022/11/15 10:33:58;;;;;;;56.20;31.58;;;;;;;8.22;90.59;101170.44;5028483;28;20041;-78
2022/11/15 10:36:25;;;;;;;58.83;32.85;;;;;;;7.46;89.74;101045.06;5028646;28;20052;-76
2022/11/15 10:38:54;;;;;;;46.53;28.50;;;;;;;6.97;89.29;101004.75;5028483;28;20048;-76
2022/11/15 10:41:27;;;;;;;57.70;32.58;;;;;;;7.53;89.31;101033.91;5028967;28;20120;-78
2022/11/15 10:44:19;;;;;;;55.78;33.15;;;;;;;7.52;88.97;101033.91;5029723;28;20033;-77
2022/11/15 10:47:03;;;;;;;55.88;30.70;;;;;;;8.37;89.48;101154.19;5012769;28;20611;-78
2022/11/15 10:49:31;;;;;;;61.63;33.60;;;;;;;8.44;88.95;101148.25;5008620;28;20073;-78
2022/11/15 10:52:12;;;;;;;53.67;32.70;;;;;;;8.39;89.03;101157.72;5008208;28;20033;-78
2022/11/15 10:54:37;;;;;;;60.03;32.38;;;;;;;8.34;88.99;101147.16;5007990;28;20132;-76
2022/11/15 10:57:35;;;;;;;57.30;33.00;;;;;;;8.13;88.85;101144.09;5008103;28;20474;-77
2022/11/15 11:00:21;;;;;;;51.53;28.88;;;;;;;8.24;89.54;101145.19;4996295;28;20050;-78
2022/11/15 11:02:55;;;;;;;53.92;30.13;;;;;;;8.17;89.46;101133.75;5018608;28;20029;-78
2022/11/15 11:05:33;;;;;;;54.95;33.97;;;;;;;7.82;90.27;101110.31;5028157;28;20048;-78
2022/11/15 11:08:05;;;;;;;49.13;31.23;;;;;;;7.14;90.65;101026.94;5011815;28;20452;-78
2022/11/15 11:10:33;;;;;;;58.30;28.90;;;;;;;7.30;90.84;101027.28;5008166;28;20127;-77
2022/11/15 11:13:23;;;;;;;57.05;31.95;;;;;;;8.13;89.45;101123.19;5014132;28;20045;-78
2022/11/15 11:16:05;;;;;;;59.28;30.48;;;;;;;7.94;89.75;101082.72;5012093;28;20062;-78
2022/11/15 11:18:46;;;;;;;51.00;28.83;;;;;;;7.73;89.61;101112.72;5008206;28;20466;-76
2022/11/15 11:21:25;;;;;;;50.00;30.08;;;;;;;7.89;89.57;101058.19;5006026;28;20049;-77
2022/11/15 11:24:07;;;;;;;47.08;29.00;;;;;;;7.38;89.04;100981.38;5006254;28;20116;-78
2022/11/15 11:27:07;;;;;;;66.43;33.55;;;;;;;7.31;90.75;101001.22;5007983;28;20037;-76
2022/11/15 11:29:46;;;;;;;51.80;29.42;;;;;;;7.35;89.33;100984.78;5014383;28;20048;-78
2022/11/15 11:32:36;;;;;;;47.60;28.00;;;;;;;8.11;88.58;101088.28;4994835;28;20029;-79
2022/11/15 11:35:52;;;;;;;53.92;30.40;;;;;;;8.16;88.26;101081.41;5006257;28;20553;-77
2022/11/15 11:38:36;;;;;;;51.50;30.77;;;;;;;8.15;88.34;101061.38;4902903;28;20060;-78
2022/11/15 11:41:19;;;;;;;51.50;28.58;;;;;;;8.19;87.90;101044.88;5008544;28;20041;-79
2022/11/15 11:44:07;;;;;;;51.70;28.83;;;;;;;8.25;87.50;101084.22;5007514;28;20049;-77
2022/11/15 11:46:55;;;;;;;48.25;27.90;;;;;;;8.28;88.41;101083.41;4999535;28;20053;-81